sensor_id;sensor_type;location;lat;lon;timestamp;pressure;altitude;pressure_sealevel;temperature;humidity
5595;BME280;1003;48.002;7.788;2023-11-19T00:01:47;99573.69;;;10.85;100.00
5595;BME280;1003;48.002;7.788;2023-11-19T00:04:13;99571.22;;;10.77;100.00
5595;BME280;1003;48.002;7.788;2023-11-19T00:06:40;99582.16;;;10.72;100.00
5595;BME280;1003;48.002;7.788;2023-11-19T00:09:07;99598.09;;;10.71;100.00
5595;BME280;1003;48.002;7.788;2023-11-19T00:11:36;99589.75;;;10.61;100.00
5595;BME280;1003;48.002;7.788;2023-11-19T00:14:03;99578.00;;;10.54;100.00
5595;BME280;1003;48.002;7.788;2023-11-19T00:16:34;99575.56;;;10.45;100.00
5595;BME280;1003;48.002;7.788;2023-11-19T00:19:01;99583.09;;;10.45;100.00
5595;BME280;1003;48.002;7.788;2023-11-19T00:21:29;99576.44;;;10.24;100.00
5595;BME280;1003;48.002;7.788;2023-11-19T00:23:59;99558.84;;;10.22;100.00
5595;BME280;1003;48.002;7.788;2023-11-19T00:26:25;99563.84;;;10.21;100.00
5595;BME280;1003;48.002;7.788;2023-11-19T00:28:54;99567.22;;;10.24;100.00
5595;BME280;1003;48.002;7.788;2023-11-19T00:31:21;99549.63;;;10.23;100.00
5595;BME280;1003;48.002;7.788;2023-11-19T00:33:48;99567.22;;;10.24;100.00
5595;BME280;1003;48.002;7.788;2023-11-19T00:36:15;99558.84;;;10.29;100.00
5595;BME280;1003;48.002;7.788;2023-11-19T00:38:42;99557.19;;;10.24;100.00
5595;BME280;1003;48.002;7.788;2023-11-19T00:41:09;99549.59;;;10.32;100.00
5595;BME280;1003;48.002;7.788;2023-11-19T00:43:36;99535.38;;;10.40;100.00
5595;BME280;1003;48.002;7.788;2023-11-19T00:46:07;99526.94;;;10.49;100.00
5595;BME280;1003;48.002;7.788;2023-11-19T00:48:36;99527.78;;;10.51;100.00
5595;BME280;1003;48.002;7.788;2023-11-19T00:51:04;99527.69;;;10.69;100.00
5595;BME280;1003;48.002;7.788;2023-11-19T00:53:32;99530.16;;;10.82;100.00
5595;BME280;1003;48.002;7.788;2023-11-19T00:55:59;99516.69;;;10.89;100.00
5595;BME280;1003;48.002;7.788;2023-11-19T00:58:26;99511.56;;;11.01;100.00
5595;BME280;1003;48.002;7.788;2023-11-19T01:00:53;99502.25;;;11.20;100.00
5595;BME280;1003;48.002;7.788;2023-11-19T01:03:21;99484.56;;;11.26;100.00
5595;BME280;1003;48.002;7.788;2023-11-19T01:05:48;99476.97;;;11.32;100.00
5595;BME280;1003;48.002;7.788;2023-11-19T01:08:18;99457.63;;;11.39;100.00
5595;BME280;1003;48.002;7.788;2023-11-19T01:10:44;99433.31;;;11.38;100.00
5595;BME280;1003;48.002;7.788;2023-11-19T01:13:12;99438.25;;;11.45;100.00
5595;BME280;1003;48.002;7.788;2023-11-19T01:15:39;99431.50;;;11.50;100.00
5595;BME280;1003;48.002;7.788;2023-11-19T01:18:06;99428.97;;;11.53;100.00
5595;BME280;1003;48.002;7.788;2023-11-19T01:20:36;99427.25;;;11.55;100.00
5595;BME280;1003;48.002;7.788;2023-11-19T01:23:04;99415.50;;;11.57;100.00
5595;BME280;1003;48.002;7.788;2023-11-19T01:25:31;99411.25;;;11.60;100.00
5595;BME280;1003;48.002;7.788;2023-11-19T01:27:58;99401.16;;;11.64;100.00
5595;BME280;1003;48.002;7.788;2023-11-19T01:30:25;99379.41;;;11.59;100.00
5595;BME280;1003;48.002;7.788;2023-11-19T01:32:52;99381.00;;;11.64;100.00
5595;BME280;1003;48.002;7.788;2023-11-19T01:35:18;99376.78;;;11.68;100.00
5595;BME280;1003;48.002;7.788;2023-11-19T01:37:47;99366.66;;;11.71;100.00
5595;BME280;1003;48.002;7.788;2023-11-19T01:40:14;99358.38;;;11.63;100.00
5595;BME280;1003;48.002;7.788;2023-11-19T01:42:41;99355.78;;;11.67;100.00
5595;BME280;1003;48.002;7.788;2023-11-19T01:45:08;99357.44;;;11.70;100.00
5595;BME280;1003;48.002;7.788;2023-11-19T01:47:36;99348.22;;;11.70;100.00
5595;BME280;1003;48.002;7.788;2023-11-19T01:50:07;99351.53;;;11.72;100.00
5595;BME280;1003;48.002;7.788;2023-11-19T01:52:35;99333.19;;;11.64;100.00
5595;BME280;1003;48.002;7.788;2023-11-19T01:55:06;99338.22;;;11.64;100.00
5595;BME280;1003;48.002;7.788;2023-11-19T01:57:35;99335.72;;;11.61;100.00
5595;BME280;1003;48.002;7.788;2023-11-19T02:00:04;99334.88;;;11.64;100.00
5595;BME280;1003;48.002;7.788;2023-11-19T02:02:37;99338.22;;;11.61;100.00
5595;BME280;1003;48.002;7.788;2023-11-19T02:05:05;99328.25;;;11.55;100.00
5595;BME280;1003;48.002;7.788;2023-11-19T02:07:32;99316.50;;;11.54;100.00
5595;BME280;1003;48.002;7.788;2023-11-19T02:09:59;99320.78;;;11.46;100.00
5595;BME280;1003;48.002;7.788;2023-11-19T02:12:32;99324.91;;;11.51;100.00
5595;BME280;1003;48.002;7.788;2023-11-19T02:15:01;99325.03;;;11.42;100.00
5595;BME280;1003;48.002;7.788;2023-11-19T02:17:30;99316.72;;;11.37;100.00
5595;BME280;1003;48.002;7.788;2023-11-19T02:19:58;99323.44;;;11.37;100.00
5595;BME280;1003;48.002;7.788;2023-11-19T02:22:24;99320.91;;;11.35;100.00
5595;BME280;1003;48.002;7.788;2023-11-19T02:24:59;99330.13;;;11.38;100.00
5595;BME280;1003;48.002;7.788;2023-11-19T02:27:45;99320.16;;;11.30;100.00
5595;BME280;1003;48.002;7.788;2023-11-19T02:30:13;99315.16;;;11.25;100.00
5595;BME280;1003;48.002;7.788;2023-11-19T02:32:41;99321.84;;;11.26;100.00
5595;BME280;1003;48.002;7.788;2023-11-19T02:35:08;99318.47;;;11.30;100.00
5595;BME280;1003;48.002;7.788;2023-11-19T02:37:35;99329.34;;;11.29;100.00
5595;BME280;1003;48.002;7.788;2023-11-19T02:40:05;99334.34;;;11.34;100.00
5595;BME280;1003;48.002;7.788;2023-11-19T02:42:34;99347.88;;;11.22;100.00
5595;BME280;1003;48.002;7.788;2023-11-19T02:45:03;99362.97;;;11.22;100.00
5595;BME280;1003;48.002;7.788;2023-11-19T02:47:31;99360.47;;;11.22;100.00
5595;BME280;1003;48.002;7.788;2023-11-19T02:49:59;99384.84;;;11.17;100.00
5595;BME280;1003;48.002;7.788;2023-11-19T02:52:26;99374.78;;;11.16;100.00
5595;BME280;1003;48.002;7.788;2023-11-19T02:54:53;99385.69;;;11.16;100.00
5595;BME280;1003;48.002;7.788;2023-11-19T02:57:21;99410.81;;;11.21;100.00
5595;BME280;1003;48.002;7.788;2023-11-19T02:59:48;99407.50;;;11.16;100.00
5595;BME280;1003;48.002;7.788;2023-11-19T03:02:16;99431.78;;;11.20;100.00
5595;BME280;1003;48.002;7.788;2023-11-19T03:04:43;99444.34;;;11.21;100.00
5595;BME280;1003;48.002;7.788;2023-11-19T03:07:11;99442.69;;;11.19;100.00
5595;BME280;1003;48.002;7.788;2023-11-19T03:09:39;99439.34;;;11.18;100.00
5595;BME280;1003;48.002;7.788;2023-11-19T03:12:07;99437.66;;;11.19;100.00
5595;BME280;1003;48.002;7.788;2023-11-19T03:14:34;99443.50;;;11.22;100.00
5595;BME280;1003;48.002;7.788;2023-11-19T03:17:01;99453.59;;;11.21;100.00
5595;BME280;1003;48.002;7.788;2023-11-19T03:19:30;99459.50;;;11.15;100.00
5595;BME280;1003;48.002;7.788;2023-11-19T03:21:57;99458.59;;;11.22;100.00
5595;BME280;1003;48.002;7.788;2023-11-19T03:24:25;99459.38;;;11.27;100.00
5595;BME280;1003;48.002;7.788;2023-11-19T03:26:52;99461.06;;;11.28;100.00
5595;BME280;1003;48.002;7.788;2023-11-19T03:29:19;99474.50;;;11.27;100.00
5595;BME280;1003;48.002;7.788;2023-11-19T03:31:45;99469.44;;;11.29;100.00
5595;BME280;1003;48.002;7.788;2023-11-19T03:34:12;99482.06;;;11.26;100.00
5595;BME280;1003;48.002;7.788;2023-11-19T03:36:41;99488.69;;;11.35;100.00
5595;BME280;1003;48.002;7.788;2023-11-19T03:39:08;99497.13;;;11.29;100.00
5595;BME280;1003;48.002;7.788;2023-11-19T03:41:34;99489.56;;;11.32;100.00
5595;BME280;1003;48.002;7.788;2023-11-19T03:44:01;99508.84;;;11.28;100.00
5595;BME280;1003;48.002;7.788;2023-11-19T03:46:28;99502.13;;;11.34;100.00
5595;BME280;1003;48.002;7.788;2023-11-19T03:48:56;99492.88;;;11.37;100.00
5595;BME280;1003;48.002;7.788;2023-11-19T03:51:23;99494.53;;;11.35;100.00
5595;BME280;1003;48.002;7.788;2023-11-19T03:53:51;99495.34;;;11.40;100.00
5595;BME280;1003;48.002;7.788;2023-11-19T03:56:18;99512.97;;;11.42;100.00
5595;BME280;1003;48.002;7.788;2023-11-19T03:58:46;99505.41;;;11.40;100.00
5595;BME280;1003;48.002;7.788;2023-11-19T04:01:13;99518.78;;;11.45;100.00
5595;BME280;1003;48.002;7.788;2023-11-19T04:03:40;99533.09;;;11.43;100.00
5595;BME280;1003;48.002;7.788;2023-11-19T04:06:07;99531.38;;;11.45;100.00
5595;BME280;1003;48.002;7.788;2023-11-19T04:08:35;99538.09;;;11.48;100.00
5595;BME280;1003;48.002;7.788;2023-11-19T04:11:04;99523.84;;;11.44;100.00
5595;BME280;1003;48.002;7.788;2023-11-19T04:13:31;99531.41;;;11.44;100.00
5595;BME280;1003;48.002;7.788;2023-11-19T04:15:58;99523.00;;;11.45;100.00
5595;BME280;1003;48.002;7.788;2023-11-19T04:18:25;99525.56;;;11.42;100.00
5595;BME280;1003;48.002;7.788;2023-11-19T04:20:52;99520.50;;;11.46;100.00
5595;BME280;1003;48.002;7.788;2023-11-19T04:23:19;99527.22;;;11.43;100.00
5595;BME280;1003;48.002;7.788;2023-11-19T04:25:46;99531.34;;;11.50;100.00
5595;BME280;1003;48.002;7.788;2023-11-19T04:28:15;99538.84;;;11.57;100.00
5595;BME280;1003;48.002;7.788;2023-11-19T04:30:41;99535.50;;;11.57;100.00
5595;BME280;1003;48.002;7.788;2023-11-19T04:33:10;99558.91;;;11.65;100.00
5595;BME280;1003;48.002;7.788;2023-11-19T04:35:37;99539.63;;;11.61;100.00
5595;BME280;1003;48.002;7.788;2023-11-19T04:38:04;99539.63;;;11.64;100.00
5595;BME280;1003;48.002;7.788;2023-11-19T04:40:31;99531.19;;;11.70;100.00
5595;BME280;1003;48.002;7.788;2023-11-19T04:42:59;99556.31;;;11.73;100.00
5595;BME280;1003;48.002;7.788;2023-11-19T04:45:27;99553.81;;;11.73;100.00
5595;BME280;1003;48.002;7.788;2023-11-19T04:47:54;99562.22;;;11.73;100.00
5595;BME280;1003;48.002;7.788;2023-11-19T04:50:21;99568.91;;;11.76;100.00
5595;BME280;1003;48.002;7.788;2023-11-19T04:52:48;99578.94;;;11.77;100.00
5595;BME280;1003;48.002;7.788;2023-11-19T04:55:15;99589.84;;;11.78;100.00
5595;BME280;1003;48.002;7.788;2023-11-19T04:57:42;99596.56;;;11.77;100.00
5595;BME280;1003;48.002;7.788;2023-11-19T05:00:11;99583.13;;;11.85;100.00
5595;BME280;1003;48.002;7.788;2023-11-19T05:02:40;99583.13;;;11.85;100.00
5595;BME280;1003;48.002;7.788;2023-11-19T05:05:08;99587.31;;;11.82;100.00
5595;BME280;1003;48.002;7.788;2023-11-19T05:07:35;99589.78;;;11.89;100.00
5595;BME280;1003;48.002;7.788;2023-11-19T05:10:02;99594.84;;;11.87;100.00
5595;BME280;1003;48.002;7.788;2023-11-19T05:12:29;99611.63;;;11.91;100.00
5595;BME280;1003;48.002;7.788;2023-11-19T05:14:57;99610.75;;;11.92;100.00
5595;BME280;1003;48.002;7.788;2023-11-19T05:17:24;99624.16;;;11.97;100.00
5595;BME280;1003;48.002;7.788;2023-11-19T05:19:52;99617.44;;;11.96;100.00
5595;BME280;1003;48.002;7.788;2023-11-19T05:22:19;99632.56;;;11.96;100.00
5595;BME280;1003;48.002;7.788;2023-11-19T05:24:46;99631.69;;;12.02;100.00
5595;BME280;1003;48.002;7.788;2023-11-19T05:27:14;99640.91;;;12.01;100.00
5595;BME280;1003;48.002;7.788;2023-11-19T05:29:41;99625.81;;;12.01;100.00
5595;BME280;1003;48.002;7.788;2023-11-19T05:32:08;99616.63;;;11.96;100.00
5595;BME280;1003;48.002;7.788;2023-11-19T05:34:35;99610.69;;;12.00;100.00
5595;BME280;1003;48.002;7.788;2023-11-19T05:37:04;99620.75;;;12.00;100.00
5595;BME280;1003;48.002;7.788;2023-11-19T05:39:31;99619.00;;;12.09;100.00
5595;BME280;1003;48.002;7.788;2023-11-19T05:41:58;99614.78;;;12.12;100.00
5595;BME280;1003;48.002;7.788;2023-11-19T05:44:25;99618.19;;;12.07;100.00
5595;BME280;1003;48.002;7.788;2023-11-19T05:46:52;99619.81;;;12.13;100.00
5595;BME280;1003;48.002;7.788;2023-11-19T05:49:19;99621.47;;;12.17;100.00
5595;BME280;1003;48.002;7.788;2023-11-19T05:51:45;99624.03;;;12.13;100.00
5595;BME280;1003;48.002;7.788;2023-11-19T05:54:14;99609.75;;;12.10;100.00
5595;BME280;1003;48.002;7.788;2023-11-19T05:56:41;99613.91;;;12.17;100.00
5595;BME280;1003;48.002;7.788;2023-11-19T05:59:08;99607.97;;;12.21;100.00
5595;BME280;1003;48.002;7.788;2023-11-19T06:01:41;99607.13;;;12.22;100.00
5595;BME280;1003;48.002;7.788;2023-11-19T06:04:08;99616.31;;;12.26;100.00
5595;BME280;1003;48.002;7.788;2023-11-19T06:06:35;99626.38;;;12.26;100.00
5595;BME280;1003;48.002;7.788;2023-11-19T06:09:03;99628.91;;;12.28;100.00
5595;BME280;1003;48.002;7.788;2023-11-19T06:11:33;99628.88;;;12.31;100.00
5595;BME280;1003;48.002;7.788;2023-11-19T06:14:01;99622.13;;;12.34;100.00
5595;BME280;1003;48.002;7.788;2023-11-19T06:16:31;99619.56;;;12.38;100.00
5595;BME280;1003;48.002;7.788;2023-11-19T06:18:58;99618.72;;;12.37;100.00
5595;BME280;1003;48.002;7.788;2023-11-19T06:21:25;99618.72;;;12.37;100.00
5595;BME280;1003;48.002;7.788;2023-11-19T06:23:51;99595.22;;;12.35;100.00
5595;BME280;1003;48.002;7.788;2023-11-19T06:26:20;99589.31;;;12.38;100.00
5595;BME280;1003;48.002;7.788;2023-11-19T06:28:49;99592.66;;;12.40;100.00
5595;BME280;1003;48.002;7.788;2023-11-19T06:31:16;99580.91;;;12.39;100.00
5595;BME280;1003;48.002;7.788;2023-11-19T06:33:43;99589.28;;;12.41;100.00
5595;BME280;1003;48.002;7.788;2023-11-19T06:36:10;99587.56;;;12.44;100.00
5595;BME280;1003;48.002;7.788;2023-11-19T06:38:37;99579.09;;;12.48;100.00
5595;BME280;1003;48.002;7.788;2023-11-19T06:41:07;99576.63;;;12.45;100.00
5595;BME280;1003;48.002;7.788;2023-11-19T06:43:35;99566.56;;;12.45;100.00
5595;BME280;1003;48.002;7.788;2023-11-19T06:46:04;99563.97;;;12.48;100.00
5595;BME280;1003;48.002;7.788;2023-11-19T06:48:31;99574.00;;;12.56;100.00
5595;BME280;1003;48.002;7.788;2023-11-19T06:50:59;99586.53;;;12.59;100.00
5595;BME280;1003;48.002;7.788;2023-11-19T06:53:26;99580.66;;;12.58;100.00
5595;BME280;1003;48.002;7.788;2023-11-19T06:55:54;99563.84;;;12.59;100.00
5595;BME280;1003;48.002;7.788;2023-11-19T06:58:20;99556.22;;;12.67;100.00
5595;BME280;1003;48.002;7.788;2023-11-19T07:00:47;99562.09;;;12.67;100.00
5595;BME280;1003;48.002;7.788;2023-11-19T07:03:16;99561.25;;;12.67;100.00
5595;BME280;1003;48.002;7.788;2023-11-19T07:05:43;99550.34;;;12.65;100.00
5595;BME280;1003;48.002;7.788;2023-11-19T07:08:10;99557.88;;;12.68;100.00
5595;BME280;1003;48.002;7.788;2023-11-19T07:10:37;99556.88;;;12.79;100.00
5595;BME280;1003;48.002;7.788;2023-11-19T07:13:04;99551.03;;;12.77;100.00
5595;BME280;1003;48.002;7.788;2023-11-19T07:15:31;99549.34;;;12.78;100.00
5595;BME280;1003;48.002;7.788;2023-11-19T07:17:59;99545.88;;;12.85;100.00
5595;BME280;1003;48.002;7.788;2023-11-19T07:20:27;99548.31;;;12.93;100.00
5595;BME280;1003;48.002;7.788;2023-11-19T07:22:54;99531.63;;;12.82;100.00
5595;BME280;1003;48.002;7.788;2023-11-19T07:25:22;99534.78;;;12.95;100.00
5595;BME280;1003;48.002;7.788;2023-11-19T07:27:51;99539.75;;;13.03;100.00
5595;BME280;1003;48.002;7.788;2023-11-19T07:30:20;99527.88;;;13.09;100.00
5595;BME280;1003;48.002;7.788;2023-11-19T07:32:47;99527.78;;;13.16;100.00
5595;BME280;1003;48.002;7.788;2023-11-19T07:35:15;99525.13;;;13.26;100.00
5595;BME280;1003;48.002;7.788;2023-11-19T07:37:43;99525.00;;;13.35;100.00
5595;BME280;1003;48.002;7.788;2023-11-19T07:40:12;99522.28;;;13.45;100.00
5595;BME280;1003;48.002;7.788;2023-11-19T07:42:39;99521.34;;;13.52;100.00
5595;BME280;1003;48.002;7.788;2023-11-19T07:45:07;99524.72;;;13.52;100.00
5595;BME280;1003;48.002;7.788;2023-11-19T07:47:34;99517.06;;;13.55;100.00
5595;BME280;1003;48.002;7.788;2023-11-19T07:50:01;99597.69;;;13.69;100.00
5595;BME280;1003;48.002;7.788;2023-11-19T07:52:29;99583.28;;;13.74;100.00
5595;BME280;1003;48.002;7.788;2023-11-19T07:54:57;99581.63;;;13.72;100.00
5595;BME280;1003;48.002;7.788;2023-11-19T07:57:24;99580.75;;;13.74;100.00
5595;BME280;1003;48.002;7.788;2023-11-19T07:59:53;99575.69;;;13.74;100.00
5595;BME280;1003;48.002;7.788;2023-11-19T08:02:20;99575.56;;;13.83;100.00
5595;BME280;1003;48.002;7.788;2023-11-19T08:04:47;99563.69;;;13.87;100.00
5595;BME280;1003;48.002;7.788;2023-11-19T08:07:17;99552.63;;;13.92;100.00
5595;BME280;1003;48.002;7.788;2023-11-19T08:09:45;99538.31;;;13.93;100.00
5595;BME280;1003;48.002;7.788;2023-11-19T08:12:13;99524.09;;;13.87;100.00
5595;BME280;1003;48.002;7.788;2023-11-19T08:14:42;99521.63;;;13.84;100.00
5595;BME280;1003;48.002;7.788;2023-11-19T08:17:09;99517.34;;;13.88;100.00
5595;BME280;1003;48.002;7.788;2023-11-19T08:19:36;99499.56;;;13.92;100.00
5595;BME280;1003;48.002;7.788;2023-11-19T08:22:03;99499.44;;;14.00;100.00
5595;BME280;1003;48.002;7.788;2023-11-19T08:24:30;99497.78;;;13.99;100.00
5595;BME280;1003;48.002;7.788;2023-11-19T08:26:57;99479.97;;;14.05;100.00
5595;BME280;1003;48.002;7.788;2023-11-19T08:29:25;99475.53;;;14.15;100.00
5595;BME280;1003;48.002;7.788;2023-11-19T08:31:53;99467.13;;;14.16;100.00
5595;BME280;1003;48.002;7.788;2023-11-19T08:34:20;99467.78;;;14.24;100.00
5595;BME280;1003;48.002;7.788;2023-11-19T08:36:50;99457.75;;;14.19;100.00
5595;BME280;1003;48.002;7.788;2023-11-19T08:39:19;99454.31;;;14.24;100.00
5595;BME280;1003;48.002;7.788;2023-11-19T08:41:46;99444.84;;;14.33;100.00
5595;BME280;1003;48.002;7.788;2023-11-19T08:44:13;99430.56;;;14.31;100.00
5595;BME280;1003;48.002;7.788;2023-11-19T08:46:48;99425.66;;;14.23;100.00
5595;BME280;1003;48.002;7.788;2023-11-19T08:49:15;99422.31;;;14.23;100.00
5595;BME280;1003;48.002;7.788;2023-11-19T08:51:42;99410.53;;;14.22;100.00
5595;BME280;1003;48.002;7.788;2023-11-19T08:54:09;99407.91;;;14.26;100.00
5595;BME280;1003;48.002;7.788;2023-11-19T08:56:36;99407.97;;;14.23;100.00
5595;BME280;1003;48.002;7.788;2023-11-19T08:59:04;99405.25;;;14.32;100.00
5595;BME280;1003;48.002;7.788;2023-11-19T09:01:31;99392.44;;;14.40;100.00
5595;BME280;1003;48.002;7.788;2023-11-19T09:04:00;99386.69;;;14.33;100.00
5595;BME280;1003;48.002;7.788;2023-11-19T09:06:26;99387.66;;;14.28;100.00
5595;BME280;1003;48.002;7.788;2023-11-19T09:08:54;99380.81;;;14.31;100.00
5595;BME280;1003;48.002;7.788;2023-11-19T09:11:24;99379.16;;;14.30;100.00
5595;BME280;1003;48.002;7.788;2023-11-19T09:13:51;99382.41;;;14.37;100.00
5595;BME280;1003;48.002;7.788;2023-11-19T09:16:18;99388.25;;;14.39;100.00
5595;BME280;1003;48.002;7.788;2023-11-19T09:18:45;99391.47;;;14.45;100.00
5595;BME280;1003;48.002;7.788;2023-11-19T09:21:13;99398.28;;;14.42;100.00
5595;BME280;1003;48.002;7.788;2023-11-19T09:23:40;99400.81;;;14.42;100.00
5595;BME280;1003;48.002;7.788;2023-11-19T09:26:08;99414.38;;;14.39;100.00
5595;BME280;1003;48.002;7.788;2023-11-19T09:28:36;99413.53;;;14.39;100.00
5595;BME280;1003;48.002;7.788;2023-11-19T09:31:03;99420.53;;;14.28;100.00
5595;BME280;1003;48.002;7.788;2023-11-19T09:33:39;99402.81;;;14.28;100.00
5595;BME280;1003;48.002;7.788;2023-11-19T09:36:07;99405.47;;;14.22;100.00
5595;BME280;1003;48.002;7.788;2023-11-19T09:38:35;99414.81;;;14.18;100.00
5595;BME280;1003;48.002;7.788;2023-11-19T09:41:05;99410.38;;;14.29;100.00
5595;BME280;1003;48.002;7.788;2023-11-19T09:43:34;99394.91;;;14.43;100.00
5595;BME280;1003;48.002;7.788;2023-11-19T09:46:05;99421.66;;;14.55;100.00
5595;BME280;1003;48.002;7.788;2023-11-19T09:48:35;99416.97;;;14.75;100.00
5595;BME280;1003;48.002;7.788;2023-11-19T09:51:04;99400.81;;;14.81;100.00
5595;BME280;1003;48.002;7.788;2023-11-19T09:53:32;99409.00;;;14.90;100.00
5595;BME280;1003;48.002;7.788;2023-11-19T09:56:01;99397.50;;;15.11;100.00
5595;BME280;1003;48.002;7.788;2023-11-19T09:58:29;99401.72;;;15.12;100.00
5595;BME280;1003;48.002;7.788;2023-11-19T10:00:57;99404.81;;;15.23;100.00
5595;BME280;1003;48.002;7.788;2023-11-19T10:03:27;99398.28;;;15.15;100.00
5595;BME280;1003;48.002;7.788;2023-11-19T10:06:01;99404.38;;;15.06;100.00
5595;BME280;1003;48.002;7.788;2023-11-19T10:08:29;99408.78;;;15.00;100.00
5595;BME280;1003;48.002;7.788;2023-11-19T10:10:57;99063.84;;;14.94;100.00
5595;BME280;1003;48.002;7.788;2023-11-19T10:13:28;99138.50;;;15.09;100.00
5595;BME280;1003;48.002;7.788;2023-11-19T10:15:56;99154.13;;;15.23;100.00
5595;BME280;1003;48.002;7.788;2023-11-19T10:18:25;99173.69;;;15.18;100.00
5595;BME280;1003;48.002;7.788;2023-11-19T10:20:53;99184.41;;;15.27;100.00
5595;BME280;1003;48.002;7.788;2023-11-19T10:23:20;99183.66;;;15.25;100.00
5595;BME280;1003;48.002;7.788;2023-11-19T10:25:47;99182.84;;;15.22;100.00
5595;BME280;1003;48.002;7.788;2023-11-19T10:28:15;99185.88;;;15.35;100.00
5595;BME280;1003;48.002;7.788;2023-11-19T10:30:44;99183.34;;;15.35;100.00
5595;BME280;1003;48.002;7.788;2023-11-19T10:33:14;99188.53;;;15.59;100.00
5595;BME280;1003;48.002;7.788;2023-11-19T10:35:53;99199.00;;;15.76;100.00
5595;BME280;1003;48.002;7.788;2023-11-19T10:38:20;99281.41;;;15.89;100.00
5595;BME280;1003;48.002;7.788;2023-11-19T10:40:48;99288.81;;;15.95;100.00
5595;BME280;1003;48.002;7.788;2023-11-19T10:43:16;99291.34;;;15.95;100.00
5595;BME280;1003;48.002;7.788;2023-11-19T10:45:45;99300.53;;;15.99;100.00
5595;BME280;1003;48.002;7.788;2023-11-19T10:48:12;99315.44;;;16.09;100.00
5595;BME280;1003;48.002;7.788;2023-11-19T10:50:41;99335.97;;;16.01;100.00
5595;BME280;1003;48.002;7.788;2023-11-19T10:53:11;99328.88;;;15.84;100.00
5595;BME280;1003;48.002;7.788;2023-11-19T10:55:39;99332.53;;;15.74;100.00
5595;BME280;1003;48.002;7.788;2023-11-19T10:58:07;99323.22;;;15.45;100.00
5595;BME280;1003;48.002;7.788;2023-11-19T11:00:39;99326.84;;;15.35;100.00
5595;BME280;1003;48.002;7.788;2023-11-19T11:03:14;99323.59;;;15.61;100.00
5595;BME280;1003;48.002;7.788;2023-11-19T11:05:43;99329.31;;;15.97;100.00
5595;BME280;1003;48.002;7.788;2023-11-19T11:08:11;99337.44;;;16.36;100.00
5595;BME280;1003;48.002;7.788;2023-11-19T11:10:43;99356.97;;;16.61;100.00
5595;BME280;1003;48.002;7.788;2023-11-19T11:13:11;99403.38;;;16.64;100.00
5595;BME280;1003;48.002;7.788;2023-11-19T11:15:40;99384.72;;;16.65;100.00
5595;BME280;1003;48.002;7.788;2023-11-19T11:18:09;99391.09;;;16.78;100.00
5595;BME280;1003;48.002;7.788;2023-11-19T11:20:36;99381.63;;;16.84;100.00
5595;BME280;1003;48.002;7.788;2023-11-19T11:26:48;99364.06;;;16.23;100.00
5595;BME280;1003;48.002;7.788;2023-11-19T11:29:26;99380.72;;;16.02;100.00
5595;BME280;1003;48.002;7.788;2023-11-19T11:32:11;99374.94;;;15.98;100.00
5595;BME280;1003;48.002;7.788;2023-11-19T11:35:00;99372.50;;;16.23;100.00
5595;BME280;1003;48.002;7.788;2023-11-19T11:37:39;99354.03;;;16.20;100.00
5595;BME280;1003;48.002;7.788;2023-11-19T11:40:14;99359.16;;;16.17;100.00
5595;BME280;1003;48.002;7.788;2023-11-19T11:42:42;99363.41;;;16.16;100.00
5595;BME280;1003;48.002;7.788;2023-11-19T11:45:11;99359.72;;;15.98;100.00
5595;BME280;1003;48.002;7.788;2023-11-19T11:48:09;99364.75;;;16.00;100.00
5595;BME280;1003;48.002;7.788;2023-11-19T11:50:57;99357.00;;;15.75;100.00
5595;BME280;1003;48.002;7.788;2023-11-19T11:53:25;99368.50;;;15.87;100.00
5595;BME280;1003;48.002;7.788;2023-11-19T11:55:57;99363.72;;;15.76;100.00
5595;BME280;1003;48.002;7.788;2023-11-19T11:58:35;99364.25;;;15.87;100.00
5595;BME280;1003;48.002;7.788;2023-11-19T12:01:04;99374.31;;;15.90;100.00
5595;BME280;1003;48.002;7.788;2023-11-19T12:03:37;99357.69;;;16.10;100.00
5595;BME280;1003;48.002;7.788;2023-11-19T12:06:07;99349.09;;;16.15;100.00
5595;BME280;1003;48.002;7.788;2023-11-19T12:08:35;99369.00;;;15.98;100.00
5595;BME280;1003;48.002;7.788;2023-11-19T12:11:02;99370.00;;;15.94;100.00
5595;BME280;1003;48.002;7.788;2023-11-19T12:13:55;99367.41;;;15.95;100.00
5595;BME280;1003;48.002;7.788;2023-11-19T12:16:24;99358.56;;;16.09;100.00
5595;BME280;1003;48.002;7.788;2023-11-19T12:18:54;99358.66;;;16.06;100.00
5595;BME280;1003;48.002;7.788;2023-11-19T12:21:31;99367.34;;;16.25;100.00
5595;BME280;1003;48.002;7.788;2023-11-19T12:24:00;99366.09;;;16.12;100.00
5595;BME280;1003;48.002;7.788;2023-11-19T12:26:38;99370.38;;;16.10;100.00
5595;BME280;1003;48.002;7.788;2023-11-19T12:29:05;99361.00;;;16.12;100.00
5595;BME280;1003;48.002;7.788;2023-11-19T12:31:33;99351.56;;;16.17;100.00
5595;BME280;1003;48.002;7.788;2023-11-19T12:34:08;99358.72;;;16.04;100.00
5595;BME280;1003;48.002;7.788;2023-11-19T12:36:39;99353.28;;;16.16;100.00
5595;BME280;1003;48.002;7.788;2023-11-19T12:39:07;99361.38;;;16.27;100.00
5595;BME280;1003;48.002;7.788;2023-11-19T12:41:52;99358.50;;;16.38;100.00
5595;BME280;1003;48.002;7.788;2023-11-19T12:44:20;99352.75;;;16.33;100.00
5595;BME280;1003;48.002;7.788;2023-11-19T12:47:00;99354.00;;;16.48;100.00
5595;BME280;1003;48.002;7.788;2023-11-19T12:49:27;99368.41;;;16.46;100.00
5595;BME280;1003;48.002;7.788;2023-11-19T12:51:56;99363.88;;;16.56;100.00
5595;BME280;1003;48.002;7.788;2023-11-19T12:54:35;99362.38;;;16.50;100.00
5595;BME280;1003;48.002;7.788;2023-11-19T12:57:03;99354.28;;;16.39;100.00
5595;BME280;1003;48.002;7.788;2023-11-19T12:59:31;99344.53;;;16.25;100.00
5595;BME280;1003;48.002;7.788;2023-11-19T13:01:58;99342.09;;;16.22;100.00
5595;BME280;1003;48.002;7.788;2023-11-19T13:04:28;99331.34;;;16.14;100.00
5595;BME280;1003;48.002;7.788;2023-11-19T13:06:59;99321.84;;;15.92;100.00
5595;BME280;1003;48.002;7.788;2023-11-19T13:09:27;99325.75;;;15.74;100.00
5595;BME280;1003;48.002;7.788;2023-11-19T13:11:55;99327.16;;;15.54;100.00
5595;BME280;1003;48.002;7.788;2023-11-19T13:14:23;99336.59;;;15.48;100.00
5595;BME280;1003;48.002;7.788;2023-11-19T13:16:50;99334.19;;;15.44;100.00
5595;BME280;1003;48.002;7.788;2023-11-19T13:19:17;99340.22;;;15.40;100.00
5595;BME280;1003;48.002;7.788;2023-11-19T13:21:45;99336.94;;;15.36;100.00